Time;durP1;ratioP1;P1;durP2;ratioP2;P2;SDS_P1;SDS_P2;PMS_P1;PMS_P2;Temp;Humidity;BMP_temperature;BMP_pressure;BME280_temperature;BME280_humidity;BME280_pressure;Samples;Min_cycle;Max_cycle;Signal;HPM_P1;HPM_P2
2021/08/31 05:15:06;;;;;;;;;6.50;6.50;;;;;18.45;61.17;98183.94;6402729;22;97665;-64
2021/08/31 05:18:09;;;;;;;;;7.00;6.00;;;;;18.40;61.03;98143.03;6140647;28;96648;-66
2021/08/31 05:21:13;;;;;;;;;7.00;6.00;;;;;18.46;61.19;98145.44;6121102;28;99589;-64
2021/08/31 05:24:17;;;;;;;;;6.40;6.40;;;;;18.49;60.95;98150.31;6122271;28;96693;-67
2021/08/31 05:27:20;;;;;;;;;5.60;5.00;;;;;18.49;61.33;98144.03;6138945;28;97491;-67
2021/08/31 05:30:26;;;;;;;;;6.25;6.00;;;;;18.49;61.20;98144.03;6157015;28;97308;-64
2021/08/31 05:33:29;;;;;;;;;8.00;7.00;;;;;18.39;61.29;98135.97;6135799;28;98166;-64
2021/08/31 05:36:33;;;;;;;;;5.60;5.00;;;;;18.47;61.20;98148.97;6157649;28;97106;-62
2021/08/31 05:39:36;;;;;;;;;6.00;6.00;;;;;18.56;61.18;98144.53;6144292;28;97216;-62
2021/08/31 05:42:40;;;;;;;;;6.40;6.00;;;;;18.54;60.79;98144.00;6136684;28;96564;-64
2021/08/31 05:45:44;;;;;;;;;7.00;6.00;;;;;18.33;61.04;98107.09;6135242;28;97212;-61
2021/08/31 05:48:48;;;;;;;;;6.50;5.50;;;;;18.52;61.04;98146.19;6103983;28;98736;-64
2021/08/31 05:51:51;;;;;;;;;5.40;5.40;;;;;18.52;60.85;98141.53;6145281;28;97488;-64
2021/08/31 05:54:54;;;;;;;;;6.00;5.00;;;;;18.59;60.95;98133.03;6148437;28;97567;-64
2021/08/31 05:57:57;;;;;;;;;6.00;6.00;;;;;18.71;60.72;98141.63;6141645;28;96901;-64
2021/08/31 06:01:03;;;;;;;;;5.00;4.00;;;;;18.82;60.37;98142.28;6141908;28;96875;-64
2021/08/31 06:04:06;;;;;;;;;7.00;7.00;;;;;18.89;60.26;98140.84;6150608;28;97445;-65
2021/08/31 06:07:11;;;;;;;;;6.00;6.00;;;;;18.92;60.62;98155.81;6159756;28;97545;-66
2021/08/31 06:10:15;;;;;;;;;6.00;6.00;;;;;18.97;60.28;98147.53;6164654;28;96574;-63
2021/08/31 06:13:18;;;;;;;;;7.00;6.00;;;;;18.94;60.11;98145.41;6138534;28;96490;-62
2021/08/31 06:16:23;;;;;;;;;6.00;6.00;;;;;18.91;60.15;98138.59;6181331;28;97537;-62
2021/08/31 06:19:26;;;;;;;;;6.00;6.00;;;;;18.83;60.40;98135.72;6162557;28;97145;-63
2021/08/31 06:22:29;;;;;;;;;5.00;5.00;;;;;18.84;60.64;98146.34;6148525;28;96824;-63
2021/08/31 06:25:33;;;;;;;;;6.50;5.50;;;;;18.81;60.72;98146.97;6163307;28;96904;-63
2021/08/31 06:28:37;;;;;;;;;6.00;6.00;;;;;18.75;60.71;98153.59;6163986;28;97450;-64
2021/08/31 06:31:41;;;;;;;;;5.40;5.40;;;;;18.56;61.38;98137.16;6175416;28;96602;-63
2021/08/31 06:34:45;;;;;;;;;7.00;6.50;;;;;18.55;61.52;98124.63;6157818;28;100075;-63
2021/08/31 06:37:48;;;;;;;;;6.33;6.33;;;;;18.85;61.34;98150.72;6174278;28;96860;-63
2021/08/31 06:40:51;;;;;;;;;5.00;5.00;;;;;18.91;60.85;98159.66;6169196;28;96774;-64
2021/08/31 06:43:55;;;;;;;;;6.80;5.80;;;;;18.87;61.09;98159.41;6175891;28;96614;-63
2021/08/31 06:46:59;;;;;;;;;5.00;5.00;;;;;18.88;61.32;98149.31;6178052;28;97039;-61
2021/08/31 06:50:04;;;;;;;;;4.75;4.75;;;;;18.86;61.18;98155.06;6156213;28;97421;-65
2021/08/31 06:53:07;;;;;;;;;6.00;5.50;;;;;18.91;60.76;98154.22;6131202;28;98447;-65
2021/08/31 06:56:10;;;;;;;;;7.25;7.00;;;;;18.93;61.00;98157.44;6170096;28;96629;-66
2021/08/31 06:59:14;;;;;;;;;5.75;5.25;;;;;18.91;60.99;98154.22;6183903;28;96638;-70
2021/08/31 07:02:18;;;;;;;;;6.00;6.00;;;;;18.99;61.05;98159.81;6170514;28;97060;-65
2021/08/31 07:05:22;;;;;;;;;5.80;5.00;;;;;19.02;60.78;98163.88;6130114;28;98543;-65
2021/08/31 07:08:25;;;;;;;;;6.00;5.00;;;;;19.04;61.14;98167.13;6156938;28;97207;-63
2021/08/31 07:11:28;;;;;;;;;7.00;7.00;;;;;19.06;60.83;98172.31;6180800;28;96637;-63
2021/08/31 07:14:32;;;;;;;;;7.00;7.00;;;;;19.10;61.04;98174.16;6171342;28;97416;-65
2021/08/31 07:17:36;;;;;;;;;5.25;5.25;;;;;19.13;60.71;98173.56;6166744;28;98191;-64
2021/08/31 07:20:40;;;;;;;;;7.40;7.00;;;;;19.14;61.06;98171.63;6131008;28;97221;-66
2021/08/31 07:23:43;;;;;;;;;8.50;8.00;;;;;19.16;61.26;98169.41;6145184;28;99583;-63
2021/08/31 07:26:46;;;;;;;;;8.80;8.00;;;;;19.10;61.40;98173.34;6160963;28;96579;-63
2021/08/31 07:29:49;;;;;;;;;6.20;5.60;;;;;19.13;61.14;98183.66;6150299;28;98491;-63
2021/08/31 07:32:54;;;;;;;;;10.00;8.00;;;;;19.24;61.16;98182.44;6168301;28;96669;-63
2021/08/31 07:35:57;;;;;;;;;8.60;8.00;;;;;19.18;61.16;98181.69;6158796;28;97006;-63
2021/08/31 07:39:01;;;;;;;;;9.00;8.00;;;;;19.18;60.99;98189.06;6159110;28;96616;-64
2021/08/31 07:42:05;;;;;;;;;10.00;9.00;;;;;19.28;61.13;98189.75;6146010;28;98477;-64
2021/08/31 07:45:09;;;;;;;;;8.75;8.00;;;;;19.28;61.05;98189.75;6162313;28;96600;-63
2021/08/31 07:48:14;;;;;;;;;9.00;8.00;;;;;19.27;60.72;98188.09;6163496;28;96627;-64
2021/08/31 07:51:17;;;;;;;;;10.00;9.00;;;;;19.30;60.67;98194.94;6166513;28;96567;-70
2021/08/31 07:54:21;;;;;;;;;6.60;6.60;;;;;19.29;60.76;98199.56;6130887;28;98028;-65
2021/08/31 07:57:24;;;;;;;;;8.00;7.00;;;;;19.33;60.87;98206.06;6167679;28;96630;-63
2021/08/31 08:00:27;;;;;;;;;8.20;7.00;;;;;19.40;61.02;98208.44;6148297;28;96798;-64
2021/08/31 08:03:33;;;;;;;;;8.50;8.50;;;;;19.46;61.25;98207.28;6162317;28;97493;-65
2021/08/31 08:06:38;;;;;;;;;8.60;7.00;;;;;19.45;60.91;98211.09;6170366;28;97121;-65
2021/08/31 08:09:41;;;;;;;;;7.00;7.00;;;;;19.39;61.25;98217.75;6187941;28;97058;-64
2021/08/31 08:12:45;;;;;;;;;9.00;8.00;;;;;19.30;60.97;98220.31;6169103;28;96547;-64
2021/08/31 08:15:48;;;;;;;;;8.00;8.00;;;;;19.32;60.94;98225.50;6168130;28;96718;-63
2021/08/31 08:18:53;;;;;;;;;6.50;6.00;;;;;19.28;61.23;98219.81;6169563;28;96468;-61
2021/08/31 08:21:56;;;;;;;;;8.00;8.00;;;;;19.29;61.35;98206.97;6172476;28;97506;-64
2021/08/31 08:24:59;;;;;;;;;7.00;6.00;;;;;19.34;61.38;98198.69;6176284;28;97285;-64
2021/08/31 08:28:03;;;;;;;;;8.60;8.00;;;;;19.18;61.58;98176.22;6168301;28;96973;-64
2021/08/31 08:31:07;;;;;;;;;8.20;7.80;;;;;19.25;61.83;98184.06;6157256;28;96613;-65
2021/08/31 08:34:12;;;;;;;;;8.00;7.00;;;;;19.30;62.11;98173.06;6172570;28;96553;-62
2021/08/31 08:37:16;;;;;;;;;8.33;8.00;;;;;19.31;61.79;98180.94;6190961;28;96733;-62
2021/08/31 08:40:19;;;;;;;;;6.00;6.00;;;;;19.36;61.86;98185.53;6160700;28;96583;-62
2021/08/31 08:43:23;;;;;;;;;7.80;7.80;;;;;19.44;62.02;98182.16;6167131;28;96909;-61
2021/08/31 08:46:27;;;;;;;;;6.25;6.25;;;;;19.45;61.88;98176.38;6167840;28;96582;-64
2021/08/31 08:49:31;;;;;;;;;10.00;8.00;;;;;19.30;62.16;98173.84;6178926;28;96797;-62
2021/08/31 08:52:35;;;;;;;;;6.50;6.50;;;;;19.35;62.14;98173.00;6183666;28;97526;-65
2021/08/31 08:55:38;;;;;;;;;5.00;5.00;;;;;19.41;61.54;98171.78;6179765;28;96887;-62
2021/08/31 08:58:42;;;;;;;;;4.00;3.40;;;;;19.44;62.20;98171.25;6151203;28;96766;-62
2021/08/31 09:01:57;;;;;;;;;5.00;4.60;;;;;19.42;61.51;98178.88;6181410;28;96550;-61
2021/08/31 09:05:03;;;;;;;;;5.00;5.00;;;;;19.47;62.02;98165.16;6182236;28;96399;-63
2021/08/31 09:08:07;;;;;;;;;4.00;4.00;;;;;19.45;61.60;98175.56;6178251;28;97468;-64
2021/08/31 09:11:19;;;;;;;;;3.20;3.20;;;;;19.62;61.71;98173.13;6164381;28;97056;-64
2021/08/31 09:14:26;;;;;;;;;4.00;3.60;;;;;19.46;61.18;98153.41;6147877;28;99488;-62
2021/08/31 09:17:30;;;;;;;;;5.00;4.00;;;;;19.65;61.22;98180.72;6171330;28;97409;-63
2021/08/31 09:20:36;;;;;;;;;3.00;2.60;;;;;19.64;61.20;98168.19;6175327;28;97242;-62
2021/08/31 09:23:43;;;;;;;;;4.00;3.00;;;;;19.84;60.68;98161.59;6173030;28;98066;-61
2021/08/31 09:26:46;;;;;;;;;5.00;5.00;;;;;19.80;60.61;98185.16;6169741;28;97006;-61
2021/08/31 09:29:50;;;;;;;;;4.40;4.00;;;;;19.96;61.09;98163.81;6161771;28;97098;-63
2021/08/31 09:33:06;;;;;;;;;5.00;4.00;;;;;20.17;60.79;98156.88;6155135;28;96491;-62
2021/08/31 09:36:14;;;;;;;;;4.60;4.60;;;;;20.51;60.30;98157.38;6145581;28;97399;-64
2021/08/31 09:39:29;;;;;;;;;4.40;4.00;;;;;20.62;59.30;98150.56;6167496;28;96984;-63
2021/08/31 09:42:32;;;;;;;;;4.00;3.20;;;;;20.74;59.22;98142.66;6131381;28;97839;-63
2021/08/31 09:45:37;;;;;;;;;4.00;4.00;;;;;20.85;59.44;98167.91;6152347;28;97573;-63
2021/08/31 09:48:41;;;;;;;;;3.00;3.00;;;;;20.65;59.16;98127.22;6177855;28;96980;-61
2021/08/31 09:52:01;;;;;;;;;4.00;4.00;;;;;20.78;58.79;98156.53;6157372;28;96770;-63
2021/08/31 09:55:05;;;;;;;;;2.60;2.60;;;;;20.83;58.77;98172.88;6192541;28;96501;-63
2021/08/31 09:58:17;;;;;;;;;3.00;3.00;;;;;20.78;58.31;98181.19;6175629;28;96770;-62
2021/08/31 10:01:21;;;;;;;;;3.00;3.00;;;;;20.80;58.63;98184.44;6172961;28;96782;-64
2021/08/31 10:04:24;;;;;;;;;3.00;3.00;;;;;20.76;58.66;98180.69;6175580;28;97360;-63
2021/08/31 10:07:30;;;;;;;;;3.00;3.00;;;;;20.92;58.39;98181.16;6162594;28;97510;-63
2021/08/31 10:10:35;;;;;;;;;3.00;3.00;;;;;20.91;58.73;98169.44;6168914;28;97406;-63
2021/08/31 10:13:41;;;;;;;;;2.00;2.00;;;;;20.91;58.74;98163.94;6169812;28;97897;-61
2021/08/31 10:16:45;;;;;;;;;3.00;3.00;;;;;21.07;58.96;98167.16;6177301;28;97419;-63
2021/08/31 10:19:49;;;;;;;;;4.00;4.00;;;;;20.97;58.52;98162.69;6158928;28;96670;-63
2021/08/31 10:22:55;;;;;;;;;3.00;3.00;;;;;21.12;58.85;98170.59;6189212;28;97471;-65
2021/08/31 10:26:26;;;;;;;;;4.00;4.00;;;;;21.21;58.71;98164.44;6190747;28;96519;-64
2021/08/31 10:29:29;;;;;;;;;2.00;2.00;;;;;21.28;58.33;98159.31;6184469;28;97422;-66
2021/08/31 10:32:33;;;;;;;;;4.00;4.00;;;;;21.16;57.86;98155.19;6191089;28;97390;-61
2021/08/31 10:35:54;;;;;;;;;3.00;2.40;;;;;21.22;58.18;98164.09;6159186;28;97347;-62
2021/08/31 10:38:59;;;;;;;;;3.00;3.00;;;;;21.29;58.57;98156.28;6173686;28;96643;-65
2021/08/31 10:42:02;;;;;;;;;3.00;3.00;;;;;21.15;58.62;98161.00;6189173;28;97505;-63
2021/08/31 10:45:27;;;;;;;;;3.00;2.00;;;;;21.18;58.20;98152.13;6189165;28;97251;-65
2021/08/31 10:48:35;;;;;;;;;5.00;5.00;;;;;21.18;58.58;98144.72;6167143;28;97427;-66
2021/08/31 10:52:06;;;;;;;;;4.00;4.00;;;;;21.37;58.54;98141.81;6181291;28;97558;-67
2021/08/31 10:55:48;;;;;;;;;5.00;5.00;;;;;21.41;58.34;98145.56;6160146;28;97470;-65
2021/08/31 10:58:55;;;;;;;;;4.80;4.00;;;;;21.46;58.22;98144.63;6154471;28;97589;-64
2021/08/31 11:01:58;;;;;;;;;5.40;5.40;;;;;21.45;58.59;98168.50;6154018;28;97057;-63
2021/08/31 11:05:27;;;;;;;;;5.00;5.00;;;;;21.52;58.73;98166.16;6144089;28;99430;-64
2021/08/31 11:08:31;;;;;;;;;4.80;4.20;;;;;21.57;58.61;98173.44;6123388;28;97418;-65
2021/08/31 11:11:34;;;;;;;;;6.00;5.60;;;;;21.15;58.54;98182.91;6154658;28;96663;-62
2021/08/31 11:14:53;;;;;;;;;4.00;4.00;;;;;21.39;58.85;98156.06;6167203;28;97107;-64
2021/08/31 11:17:57;;;;;;;;;6.80;5.40;;;;;21.47;58.62;98166.28;6141979;28;96709;-63
2021/08/31 11:21:01;;;;;;;;;5.00;5.00;;;;;21.28;58.82;98167.56;6143157;28;96942;-64
2021/08/31 11:24:08;;;;;;;;;4.60;4.60;;;;;21.28;58.45;98173.03;6127308;28;97351;-65
2021/08/31 11:27:11;;;;;;;;;7.00;6.00;;;;;21.22;58.90;98169.59;6119366;28;97827;-62
2021/08/31 11:30:16;;;;;;;;;7.00;6.00;;;;;21.20;58.91;98171.03;6121291;28;96660;-63
2021/08/31 11:33:25;;;;;;;;;5.00;5.00;;;;;21.13;59.45;98179.63;6129662;28;96994;-63
2021/08/31 11:36:29;;;;;;;;;6.00;6.00;;;;;21.13;59.91;98182.38;6129232;28;97443;-62
2021/08/31 11:39:33;;;;;;;;;6.00;5.75;;;;;21.13;59.83;98180.47;6138374;28;98708;-66
2021/08/31 11:42:55;;;;;;;;;4.40;4.40;;;;;20.90;59.59;98161.50;6162469;28;97554;-64
2021/08/31 11:46:00;;;;;;;;;6.00;5.67;;;;;21.01;59.86;98158.22;6154397;28;97492;-64
2021/08/31 11:49:08;;;;;;;;;6.20;5.00;;;;;21.11;60.07;98165.44;6144579;28;97099;-66
2021/08/31 11:52:15;;;;;;;;;5.75;5.00;;;;;21.13;59.91;98166.78;6149762;28;97052;-64
2021/08/31 11:55:26;;;;;;;;;7.00;5.60;;;;;21.08;59.61;98144.94;6154632;28;97468;-64
2021/08/31 11:58:31;;;;;;;;;4.00;4.00;;;;;21.16;59.33;98157.09;6149089;28;97121;-62
2021/08/31 12:01:37;;;;;;;;;4.80;4.80;;;;;21.00;59.90;98158.56;6120892;28;98530;-64
2021/08/31 12:04:41;;;;;;;;;5.00;5.00;;;;;21.04;59.97;98152.16;6137400;28;97500;-64
2021/08/31 12:07:49;;;;;;;;;4.60;3.60;;;;;20.85;60.27;98165.16;6113749;28;96666;-66
2021/08/31 12:10:54;;;;;;;;;6.00;6.00;;;;;20.91;60.50;98174.91;6140124;28;96705;-64
2021/08/31 12:13:57;;;;;;;;;6.00;5.60;;;;;20.80;60.49;98168.00;6131615;28;97755;-64
2021/08/31 12:17:02;;;;;;;;;6.60;6.00;;;;;20.83;60.68;98181.09;6143098;28;96739;-63
2021/08/31 12:20:09;;;;;;;;;5.60;5.60;;;;;20.86;60.94;98190.63;6140857;28;96704;-66
2021/08/31 12:23:13;;;;;;;;;3.80;3.80;;;;;20.86;61.13;98191.44;6142235;28;96785;-66
2021/08/31 12:26:31;;;;;;;;;7.00;6.00;;;;;20.89;60.65;98179.88;6140881;28;96849;-63
2021/08/31 12:29:46;;;;;;;;;9.00;8.00;;;;;20.88;60.69;98180.16;6129770;28;96685;-65
2021/08/31 12:32:56;;;;;;;;;6.00;6.00;;;;;20.87;60.78;98201.28;6161385;28;97099;-63
2021/08/31 12:36:06;;;;;;;;;7.00;6.00;;;;;21.00;60.73;98210.63;6131240;28;97196;-66
2021/08/31 12:39:24;;;;;;;;;6.00;6.00;;;;;21.14;60.92;98195.81;6146471;28;97173;-64
2021/08/31 12:42:27;;;;;;;;;7.00;6.00;;;;;21.00;61.21;98189.50;6111049;28;97789;-61
2021/08/31 12:45:31;;;;;;;;;7.00;7.00;;;;;21.06;61.49;98190.22;6142187;28;100171;-64
2021/08/31 12:48:37;;;;;;;;;6.00;6.00;;;;;21.22;61.20;98199.75;6153860;28;96554;-62
2021/08/31 12:51:43;;;;;;;;;5.75;5.50;;;;;21.31;60.56;98203.38;6138202;28;96837;-62
2021/08/31 12:54:46;;;;;;;;;6.60;6.00;;;;;21.32;60.70;98210.50;6160696;28;96625;-63
2021/08/31 12:57:49;;;;;;;;;6.00;6.00;;;;;21.33;60.45;98200.34;6157674;28;97163;-63
2021/08/31 13:01:10;;;;;;;;;5.00;5.00;;;;;21.24;60.55;98188.47;6121247;28;97788;-65
2021/08/31 13:04:15;;;;;;;;;5.00;5.00;;;;;21.23;60.48;98176.69;6154062;28;97603;-68
2021/08/31 13:07:19;;;;;;;;;5.25;4.25;;;;;21.10;60.78;98197.50;6157448;28;97307;-67
2021/08/31 13:10:22;;;;;;;;;5.00;4.20;;;;;21.11;60.76;98198.34;6155974;28;96635;-67
2021/08/31 13:13:30;;;;;;;;;7.50;7.00;;;;;21.20;60.45;98184.75;6143226;28;97399;-67
2021/08/31 13:16:33;;;;;;;;;3.00;3.00;;;;;21.25;59.97;98185.44;6162761;28;97419;-67
2021/08/31 13:19:38;;;;;;;;;4.40;4.00;;;;;20.97;60.35;98170.91;6145938;28;97101;-67
2021/08/31 13:22:41;;;;;;;;;4.50;3.75;;;;;20.68;61.18;98173.19;6166019;28;97504;-66
2021/08/31 13:25:45;;;;;;;;;2.00;2.00;;;;;20.73;60.94;98162.94;6146691;28;97531;-64
2021/08/31 13:28:48;;;;;;;;;3.60;3.60;;;;;20.84;60.85;98149.03;6153508;28;96852;-64
2021/08/31 13:31:52;;;;;;;;;4.00;4.00;;;;;20.82;61.02;98143.06;6160544;28;97462;-66
2021/08/31 13:34:56;;;;;;;;;4.20;4.00;;;;;20.79;60.54;98143.66;6161943;28;97457;-68
2021/08/31 13:37:59;;;;;;;;;6.00;5.75;;;;;20.85;60.88;98150.66;6157860;28;96770;-67
2021/08/31 13:41:03;;;;;;;;;4.80;4.00;;;;;20.92;60.39;98160.06;6154174;28;97541;-65
2021/08/31 13:44:07;;;;;;;;;3.00;3.00;;;;;20.94;59.91;98159.78;6169818;28;97458;-62
2021/08/31 13:47:10;;;;;;;;;3.00;3.00;;;;;20.94;59.32;98159.78;6147398;28;100098;-62
2021/08/31 13:50:15;;;;;;;;;3.00;3.00;;;;;20.95;59.11;98150.44;6140223;28;96743;-63
2021/08/31 13:53:18;;;;;;;;;3.75;3.75;;;;;20.92;59.18;98162.00;6163046;28;97531;-65
2021/08/31 13:56:21;;;;;;;;;3.00;3.00;;;;;20.89;58.67;98152.47;6163350;28;97616;-63
2021/08/31 13:59:25;;;;;;;;;3.80;3.20;;;;;21.01;58.42;98162.91;6164995;28;97559;-62
2021/08/31 14:02:28;;;;;;;;;3.00;3.00;;;;;21.09;58.48;98170.41;6148279;28;96691;-68
2021/08/31 14:05:33;;;;;;;;;2.40;2.40;;;;;21.17;57.99;98173.25;6130025;28;98452;-65
2021/08/31 14:08:37;;;;;;;;;3.00;3.00;;;;;21.24;57.68;98170.09;6144667;28;96899;-63
2021/08/31 14:11:40;;;;;;;;;2.00;2.00;;;;;21.31;58.36;98172.41;6147263;28;96676;-61
2021/08/31 14:14:43;;;;;;;;;3.20;3.20;;;;;21.35;58.22;98174.25;6163431;28;98029;-63
2021/08/31 14:17:47;;;;;;;;;5.00;4.40;;;;;21.37;58.87;98171.19;6164441;28;97490;-65
2021/08/31 14:20:51;;;;;;;;;4.60;4.00;;;;;21.37;59.36;98172.00;6163816;28;96884;-66
2021/08/31 14:23:56;;;;;;;;;5.00;5.00;;;;;21.42;59.42;98166.41;6163058;28;96424;-63
2021/08/31 14:27:00;;;;;;;;;5.00;5.00;;;;;21.57;59.16;98162.47;6164282;28;96570;-66
2021/08/31 14:30:03;;;;;;;;;5.40;5.40;;;;;21.66;59.84;98173.50;6164208;28;97368;-64
2021/08/31 14:33:07;;;;;;;;;6.40;6.40;;;;;21.70;59.46;98169.84;6164037;28;97662;-66
2021/08/31 14:36:12;;;;;;;;;4.20;4.00;;;;;21.72;59.61;98159.38;6163557;28;96810;-63
2021/08/31 14:39:15;;;;;;;;;6.00;6.00;;;;;21.70;59.88;98161.59;6146632;28;99659;-64
2021/08/31 14:42:18;;;;;;;;;7.00;6.80;;;;;21.75;59.86;98174.38;6163435;28;97657;-65
2021/08/31 14:45:22;;;;;;;;;7.25;7.00;;;;;21.71;60.19;98173.38;6166158;28;97047;-64
2021/08/31 14:48:25;;;;;;;;;8.00;7.00;;;;;21.77;60.07;98177.63;6120922;28;96695;-64
2021/08/31 14:51:30;;;;;;;;;7.60;7.00;;;;;21.79;59.43;98180.91;6154620;28;98404;-66
2021/08/31 14:54:33;;;;;;;;;7.40;7.00;;;;;21.86;59.61;98184.00;6147466;28;97067;-63
2021/08/31 14:57:38;;;;;;;;;8.00;7.00;;;;;21.87;59.82;98175.47;6162399;28;96858;-64
2021/08/31 15:00:41;;;;;;;;;7.00;7.00;;;;;21.88;59.32;98171.59;6161999;28;97184;-63
2021/08/31 15:03:44;;;;;;;;;8.75;8.75;;;;;21.92;59.82;98177.28;6142909;28;97737;-64
2021/08/31 15:06:50;;;;;;;;;7.00;6.80;;;;;21.84;59.64;98169.81;6163527;28;97960;-64
2021/08/31 15:09:55;;;;;;;;;6.25;6.00;;;;;21.79;59.51;98168.00;6161552;28;97495;-64
2021/08/31 15:12:59;;;;;;;;;8.60;7.60;;;;;21.67;59.59;98167.72;6161094;28;97474;-64
2021/08/31 15:16:02;;;;;;;;;8.60;8.00;;;;;21.71;59.05;98173.38;6138830;28;96761;-62
2021/08/31 15:19:06;;;;;;;;;7.00;6.00;;;;;21.64;58.38;98178.53;6139775;28;96868;-63
2021/08/31 15:22:11;;;;;;;;;5.60;5.60;;;;;21.50;58.30;98175.84;6139079;28;97452;-62
2021/08/31 15:25:14;;;;;;;;;5.60;5.00;;;;;21.53;58.50;98181.50;6117538;28;97154;-63
2021/08/31 15:28:19;;;;;;;;;6.80;6.00;;;;;21.34;58.21;98186.31;6120694;28;96646;-64
2021/08/31 15:31:22;;;;;;;;;5.00;5.00;;;;;21.26;57.83;98192.53;6138474;28;96795;-63
2021/08/31 15:34:26;;;;;;;;;5.00;5.00;;;;;21.27;58.04;98191.41;6120255;28;98377;-64
2021/08/31 15:37:33;;;;;;;;;4.00;4.00;;;;;21.24;57.65;98183.00;6137789;28;97458;-62
2021/08/31 15:40:36;;;;;;;;;4.00;4.00;;;;;21.01;57.55;98179.38;6120999;28;96885;-63
2021/08/31 15:43:39;;;;;;;;;5.00;3.75;;;;;20.90;57.91;98177.94;6137942;28;96709;-63
2021/08/31 15:46:43;;;;;;;;;3.00;3.00;;;;;20.81;58.12;98179.78;6136958;28;97043;-62
2021/08/31 15:49:46;;;;;;;;;4.60;4.00;;;;;20.85;58.34;98187.09;6122291;28;97424;-64
2021/08/31 15:52:55;;;;;;;;;3.50;3.50;;;;;20.81;58.88;98186.06;6141900;28;96860;-63
2021/08/31 15:56:18;;;;;;;;;6.25;5.75;;;;;20.74;58.54;98186.47;6137825;28;96733;-64
2021/08/31 15:59:22;;;;;;;;;7.00;6.00;;;;;20.66;58.23;98187.19;6137576;28;97739;-63
2021/08/31 16:02:25;;;;;;;;;7.00;7.00;;;;;20.58;59.03;98187.06;6139746;28;97439;-64
2021/08/31 16:05:29;;;;;;;;;7.00;7.00;;;;;20.46;59.09;98189.50;6147139;28;97195;-63
2021/08/31 16:08:34;;;;;;;;;6.00;5.80;;;;;20.23;59.36;98167.44;6139618;28;97456;-63
2021/08/31 16:11:37;;;;;;;;;6.00;5.40;;;;;20.37;59.48;98200.34;6121051;28;97201;-64
2021/08/31 16:14:42;;;;;;;;;6.40;6.00;;;;;20.36;59.73;98186.94;6155313;28;98113;-63
2021/08/31 16:17:46;;;;;;;;;4.60;4.60;;;;;20.33;59.80;98199.31;6163334;28;96439;-63
2021/08/31 16:20:49;;;;;;;;;4.80;4.80;;;;;20.23;59.79;98191.28;6161069;28;98108;-62
2021/08/31 16:23:56;;;;;;;;;3.60;3.00;;;;;20.14;60.24;98182.09;6144882;28;97996;-63
2021/08/31 16:27:01;;;;;;;;;3.00;3.00;;;;;20.24;59.76;98193.69;6129501;28;97535;-62
2021/08/31 16:30:07;;;;;;;;;4.00;4.00;;;;;20.23;60.12;98181.09;6144955;28;97695;-64
2021/08/31 16:33:10;;;;;;;;;6.00;5.00;;;;;20.22;60.43;98190.47;6142176;28;96790;-64
2021/08/31 16:36:14;;;;;;;;;4.00;4.00;;;;;20.16;60.46;98183.44;6163753;28;97466;-63
2021/08/31 16:39:18;;;;;;;;;5.00;4.75;;;;;20.11;60.69;98183.53;6137575;28;99692;-62
2021/08/31 16:42:22;;;;;;;;;6.00;5.00;;;;;20.03;60.40;98186.16;6159728;28;97642;-62
2021/08/31 16:45:25;;;;;;;;;6.00;5.00;;;;;19.89;60.90;98156.81;6161298;28;96686;-63
2021/08/31 16:48:28;;;;;;;;;5.00;5.00;;;;;20.12;60.62;98190.63;6161720;28;97499;-63
2021/08/31 16:51:31;;;;;;;;;5.80;5.00;;;;;20.15;60.70;98181.81;6157704;28;97494;-64
2021/08/31 16:54:36;;;;;;;;;5.00;5.00;;;;;20.15;60.80;98189.22;6156420;28;97444;-63
2021/08/31 16:57:40;;;;;;;;;6.20;5.00;;;;;20.18;60.89;98188.63;6161928;28;97078;-64
2021/08/31 17:00:44;;;;;;;;;8.00;7.40;;;;;20.22;60.87;98192.38;6147767;28;96835;-63
2021/08/31 17:03:48;;;;;;;;;5.80;5.00;;;;;20.26;60.88;98183.25;6146269;28;97463;-63
2021/08/31 17:06:51;;;;;;;;;5.75;5.00;;;;;20.33;60.83;98186.44;6144105;28;97757;-64
2021/08/31 17:09:56;;;;;;;;;8.00;7.00;;;;;20.33;60.58;98194.63;6163227;28;97507;-64
2021/08/31 17:13:00;;;;;;;;;7.60;7.40;;;;;20.39;60.39;98200.84;6158224;28;97367;-63
2021/08/31 17:16:04;;;;;;;;;6.40;6.40;;;;;20.41;60.36;98192.34;6145331;28;96733;-63
2021/08/31 17:19:07;;;;;;;;;8.00;7.40;;;;;20.41;60.81;98200.53;6120387;28;97506;-64
2021/08/31 17:22:10;;;;;;;;;8.00;7.00;;;;;20.38;60.65;98182.78;6138147;28;97786;-62
2021/08/31 17:25:15;;;;;;;;;8.60;7.40;;;;;20.39;60.78;98197.28;6109148;28;98758;-62
2021/08/31 17:28:19;;;;;;;;;7.60;7.00;;;;;20.38;60.91;98203.91;6139539;28;97515;-63
2021/08/31 17:31:23;;;;;;;;;8.00;7.00;;;;;20.41;60.97;98206.03;6125593;28;96910;-64
2021/08/31 17:34:27;;;;;;;;;7.40;7.00;;;;;20.39;60.82;98210.97;6141372;28;97491;-62
2021/08/31 17:37:30;;;;;;;;;7.60;7.60;;;;;20.33;61.00;98205.59;6145899;28;98123;-64
2021/08/31 17:40:35;;;;;;;;;7.80;7.00;;;;;20.40;61.20;98218.91;6141461;28;97191;-64
2021/08/31 17:43:38;;;;;;;;;8.60;7.60;;;;;20.33;60.90;98213.81;6124735;28;98707;-64
2021/08/31 17:46:42;;;;;;;;;7.00;7.00;;;;;20.37;61.00;98219.50;6123420;28;97518;-64
2021/08/31 17:49:45;;;;;;;;;9.00;8.00;;;;;20.42;60.93;98227.63;6138576;28;97154;-64
2021/08/31 17:52:48;;;;;;;;;8.00;7.40;;;;;20.42;61.27;98227.63;6132062;28;96829;-63
2021/08/31 17:55:53;;;;;;;;;8.40;8.00;;;;;20.42;60.81;98229.56;6120703;28;97315;-63
2021/08/31 17:58:56;;;;;;;;;6.60;6.00;;;;;20.44;61.05;98228.13;6129388;28;97686;-64
2021/08/31 18:01:59;;;;;;;;;7.60;7.00;;;;;20.44;61.19;98230.06;6120802;28;97097;-62
2021/08/31 18:05:04;;;;;;;;;8.00;8.00;;;;;20.46;60.94;98236.88;6140786;28;97238;-62
2021/08/31 18:08:07;;;;;;;;;9.00;7.00;;;;;20.41;61.30;98236.13;6120094;28;99856;-63
2021/08/31 18:11:12;;;;;;;;;9.00;7.00;;;;;20.41;61.54;98250.66;6141093;28;96628;-63
2021/08/31 18:14:16;;;;;;;;;9.00;8.00;;;;;20.41;61.47;98253.38;6152966;28;97048;-62
2021/08/31 18:17:19;;;;;;;;;9.00;7.60;;;;;20.47;61.00;98256.84;6160180;28;98002;-62
2021/08/31 18:20:36;;;;;;;;;8.00;7.20;;;;;20.49;61.06;98251.88;6163239;28;97436;-64
2021/08/31 18:23:39;;;;;;;;;7.00;7.00;;;;;20.46;61.16;98263.44;6164034;28;97619;-63
2021/08/31 18:26:43;;;;;;;;;7.50;6.50;;;;;20.43;61.58;98262.09;6160602;28;97964;-64
2021/08/31 18:29:47;;;;;;;;;7.00;6.40;;;;;20.57;61.33;98264.88;6172079;28;97496;-64
2021/08/31 18:32:50;;;;;;;;;5.00;5.00;;;;;20.61;61.17;98268.63;6166597;28;97071;-64
2021/08/31 18:35:53;;;;;;;;;5.00;4.60;;;;;20.69;61.01;98271.47;6147845;28;97269;-62
2021/08/31 18:38:59;;;;;;;;;6.00;5.00;;;;;20.69;60.79;98273.41;6164120;28;96725;-62
2021/08/31 18:42:06;;;;;;;;;4.00;4.00;;;;;20.74;60.71;98285.09;6164355;28;97581;-63
2021/08/31 18:45:10;;;;;;;;;4.00;3.00;;;;;20.74;60.74;98285.09;6168747;28;97893;-63
2021/08/31 18:48:13;;;;;;;;;5.00;5.00;;;;;20.69;60.88;98276.16;6161613;28;97588;-64
2021/08/31 18:51:17;;;;;;;;;3.60;3.00;;;;;20.82;60.52;98291.78;6169296;28;97532;-63
2021/08/31 18:54:20;;;;;;;;;5.00;5.00;;;;;20.84;60.37;98295.03;6147082;28;96855;-63
2021/08/31 18:57:25;;;;;;;;;4.00;3.80;;;;;20.73;60.31;98274.41;6161751;28;97503;-64
2021/08/31 19:00:28;;;;;;;;;4.00;4.00;;;;;20.87;60.35;98288.94;6146975;28;98854;-64
2021/08/31 19:03:32;;;;;;;;;2.80;2.80;;;;;20.90;60.34;98293.03;6170024;28;96550;-62
2021/08/31 19:06:35;;;;;;;;;5.00;4.60;;;;;20.89;60.57;98299.59;6161887;28;97262;-64
2021/08/31 19:09:39;;;;;;;;;4.00;3.00;;;;;20.89;60.24;98302.34;6167548;28;96815;-64
2021/08/31 19:12:44;;;;;;;;;4.25;3.25;;;;;20.93;60.68;98304.19;6139468;28;99745;-64
2021/08/31 19:15:47;;;;;;;;;3.20;3.20;;;;;20.95;60.12;98304.69;6135969;28;96608;-62
2021/08/31 19:18:51;;;;;;;;;3.00;3.00;;;;;20.99;60.07;98302.97;6139215;28;97425;-63
2021/08/31 19:21:54;;;;;;;;;5.00;4.40;;;;;21.02;59.90;98307.03;6179875;28;97510;-62
2021/08/31 19:24:57;;;;;;;;;3.50;3.50;;;;;21.01;60.25;98308.94;6166259;28;97391;-63
2021/08/31 19:28:02;;;;;;;;;4.40;3.80;;;;;21.02;60.12;98307.84;6169225;28;96685;-62
2021/08/31 19:31:06;;;;;;;;;3.00;3.00;;;;;21.02;59.77;98298.81;6176619;28;96851;-63
2021/08/31 19:34:09;;;;;;;;;4.25;4.00;;;;;21.04;60.34;98302.06;6172552;28;97453;-63
2021/08/31 19:37:12;;;;;;;;;3.25;2.00;;;;;21.06;60.20;98306.09;6170089;28;98290;-62
2021/08/31 19:40:15;;;;;;;;;4.00;4.00;;;;;21.08;59.85;98306.63;6170387;28;96967;-63
2021/08/31 19:43:20;;;;;;;;;3.00;3.00;;;;;21.06;59.65;98308.84;6186038;28;97797;-63
2021/08/31 19:46:26;;;;;;;;;4.00;3.00;;;;;21.09;60.05;98312.94;6151018;28;97689;-64